Terminal Aerodrome Forecast
Issued by NWS

Home | Current Version | Previous Version | Text Only | Print | Product List | Glossary Off
Versions: 1 2 3 4 5 6 7 8 9 10 11 12 13 14 15 16

000
FTUS43 KBIS 082300
TAFJMS
TAF
KJMS 082332Z 0900/0924 32016KT P6SM FEW060
     FM090200 36006KT 6SM FU SKC
     FM091600 01005KT P6SM FEW040=

USA.gov is the U.S. government's official web portal to all federal, state and local government web resources and services.